Weather Data

Pearl Creek Farm: 8878 N Farm Road 75, Walnut Grove MO 65770

<== Previous Day (Friday 26 Sep 2014) | Next Day (Sunday 28 Sep 2014) ==>

Summary Precipitation Data For Saturday 27 September 2014

ElementValueUnits
Precipitation0"
Notes(none)
SourcePearl Creek Farm

Summary Temperature Data For Saturday 27 September 2014

ElementValueUnits
High Temperature80 oF
Low Temperature57 oF
Average Temperature67 oF
High Humidity93 %
Low Humidity62 %
Average Humidity81 %
SourcePearl Creek Farm

Detail Temperature Data For Saturday 27 September 2014

Date / TimeTemp (F)RH (%)Dew Pt (F)Report Date / TimeSource
2014-09-27 00:00:00 62 86 57.8 2014-11-02 13:41:02 Pearl Creek Farm
2014-09-27 00:30:00 61 87 56.9 2014-11-02 13:41:02 Pearl Creek Farm
2014-09-27 01:00:00 61 87 57.1 2014-11-02 13:41:02 Pearl Creek Farm
2014-09-27 01:30:00 60 87 56.0 2014-11-02 13:41:02 Pearl Creek Farm
2014-09-27 02:00:00 60 87 56.1 2014-11-02 13:41:02 Pearl Creek Farm
2014-09-27 02:30:00 59 88 55.3 2014-11-02 13:41:02 Pearl Creek Farm
2014-09-27 03:00:00 59 88 55.5 2014-11-02 13:41:02 Pearl Creek Farm
2014-09-27 03:30:00 59 88 55.5 2014-11-02 13:41:02 Pearl Creek Farm
2014-09-27 04:00:00 59 88 55.5 2014-11-02 13:41:02 Pearl Creek Farm
2014-09-27 04:30:00 58 88 54.5 2014-11-02 13:41:02 Pearl Creek Farm
2014-09-27 05:00:00 58 89 54.6 2014-11-02 13:41:02 Pearl Creek Farm
2014-09-27 05:30:00 58 89 54.6 2014-11-02 13:41:02 Pearl Creek Farm
2014-09-27 06:00:00 57 89 53.6 2014-11-02 13:41:02 Pearl Creek Farm
2014-09-27 06:30:00 57 89 53.6 2014-11-02 13:41:02 Pearl Creek Farm
2014-09-27 07:00:00 57 89 53.6 2014-11-02 13:41:02 Pearl Creek Farm
2014-09-27 07:30:00 57 89 53.6 2014-11-02 13:41:02 Pearl Creek Farm
2014-09-27 08:00:00 57 89 53.8 2014-11-02 13:41:02 Pearl Creek Farm
2014-09-27 08:30:00 57 91 54.3 2014-11-02 13:41:02 Pearl Creek Farm
2014-09-27 09:00:00 58 92 55.5 2014-11-02 13:41:02 Pearl Creek Farm
2014-09-27 09:30:00 60 92 57.7 2014-11-02 13:41:02 Pearl Creek Farm
2014-09-27 10:00:00 63 93 60.8 2014-11-02 13:41:02 Pearl Creek Farm
2014-09-27 10:30:00 68 88 64.1 2014-11-02 13:41:02 Pearl Creek Farm
2014-09-27 11:00:00 71 82 65.1 2014-11-02 13:41:02 Pearl Creek Farm
2014-09-27 11:30:00 73 78 65.7 2014-11-02 13:41:02 Pearl Creek Farm
2014-09-27 12:00:00 75 73 65.6 2014-11-02 13:41:02 Pearl Creek Farm
2014-09-27 12:30:00 75 72 65.4 2014-11-02 13:41:02 Pearl Creek Farm
2014-09-27 13:00:00 76 70 65.5 2014-11-02 13:41:02 Pearl Creek Farm
2014-09-27 13:30:00 77 68 65.6 2014-11-02 13:41:02 Pearl Creek Farm
2014-09-27 14:00:00 77 65 64.3 2014-11-02 13:41:02 Pearl Creek Farm
2014-09-27 14:30:00 78 63 64.4 2014-11-02 13:41:02 Pearl Creek Farm
2014-09-27 15:00:00 79 63 65.1 2014-11-02 13:41:02 Pearl Creek Farm
2014-09-27 15:30:00 79 63 65.3 2014-11-02 13:41:02 Pearl Creek Farm
2014-09-27 16:00:00 80 62 65.6 2014-11-02 13:41:02 Pearl Creek Farm
2014-09-27 16:30:00 79 64 65.8 2014-11-02 13:41:02 Pearl Creek Farm
2014-09-27 17:00:00 78 66 65.7 2014-11-02 13:41:02 Pearl Creek Farm
2014-09-27 17:30:00 76 70 65.3 2014-11-02 13:41:02 Pearl Creek Farm
2014-09-27 18:00:00 76 73 66.5 2014-11-02 13:41:02 Pearl Creek Farm
2014-09-27 18:30:00 74 74 65.0 2014-11-02 13:41:02 Pearl Creek Farm
2014-09-27 19:00:00 73 77 65.4 2014-11-02 13:41:02 Pearl Creek Farm
2014-09-27 19:30:00 71 80 64.3 2014-11-02 13:41:02 Pearl Creek Farm
2014-09-27 20:00:00 69 81 62.8 2014-11-02 13:41:02 Pearl Creek Farm
2014-09-27 20:30:00 67 83 61.7 2014-11-02 13:41:02 Pearl Creek Farm
2014-09-27 21:00:00 66 84 60.9 2014-11-02 13:41:02 Pearl Creek Farm
2014-09-27 21:30:00 65 85 60.2 2014-11-02 13:41:02 Pearl Creek Farm
2014-09-27 22:00:00 65 86 60.5 2014-11-02 13:41:02 Pearl Creek Farm
2014-09-27 22:30:00 64 86 59.6 2014-11-02 13:41:02 Pearl Creek Farm
2014-09-27 23:00:00 63 87 58.9 2014-11-02 13:41:02 Pearl Creek Farm
2014-09-27 23:30:00 63 86 58.7 2014-11-02 13:41:02 Pearl Creek Farm

A total of 48 rows are displayed.